Time;durP1;ratioP1;P1;durP2;ratioP2;P2;SDS_P1;SDS_P2;PMS_P1;PMS_P2;Temp;Humidity;BMP_temperature;BMP_pressure;BME280_temperature;BME280_humidity;BME280_pressure;Samples;Min_cycle;Max_cycle;Signal;HPM_P1;HPM_P2
2023/06/16 00:01:23;;;;;;;5.53;5.03;;;;;;;;;;5094658;28;20040;-82
2023/06/16 00:03:51;;;;;;;7.43;4.95;;;;;;;;;;5093560;28;20047;-82
2023/06/16 00:06:19;;;;;;;6.65;5.05;;;;;;;;;;5093608;28;20460;-83
2023/06/16 00:08:48;;;;;;;7.82;5.35;;;;;;;;;;5093215;28;20458;-83
2023/06/16 00:11:16;;;;;;;6.15;4.88;;;;;;;;;;5093915;28;20047;-83
2023/06/16 00:13:44;;;;;;;5.50;4.78;;;;;;;;;;5098632;28;20105;-81
2023/06/16 00:16:12;;;;;;;5.25;4.60;;;;;;;;;;5102328;28;20400;-82
2023/06/16 00:18:43;;;;;;;5.60;4.50;;;;;;;;;;5093245;28;20131;-83
2023/06/16 00:21:13;;;;;;;6.18;4.97;;;;;;;;;;5091780;28;20087;-83
2023/06/16 00:23:41;;;;;;;6.30;5.35;;;;;;;;;;5094103;28;20093;-83
2023/06/16 00:26:08;;;;;;;6.82;4.90;;;;;;;;;;5092976;28;20174;-83
2023/06/16 00:28:35;;;;;;;5.90;5.45;;;;;;;;;;5092967;28;20052;-82
2023/06/16 00:31:02;;;;;;;5.93;5.25;;;;;;;;;;5092595;28;20048;-82
2023/06/16 00:33:30;;;;;;;6.70;5.00;;;;;;;;;;5094359;28;20446;-83
2023/06/16 00:35:57;;;;;;;7.22;5.05;;;;;;;;;;5092513;28;20048;-83
2023/06/16 00:38:25;;;;;;;5.25;4.75;;;;;;;;;;5093966;28;20052;-82
2023/06/16 00:40:52;;;;;;;5.50;5.10;;;;;;;;;;5093989;28;20454;-82
2023/06/16 00:43:19;;;;;;;10.25;5.22;;;;;;;;;;5093927;28;20385;-82
2023/06/16 00:45:48;;;;;;;6.13;5.13;;;;;;;;;;5093712;28;20455;-82
2023/06/16 00:48:15;;;;;;;5.25;4.75;;;;;;;;;;5093789;28;20044;-82
2023/06/16 00:50:43;;;;;;;6.97;5.03;;;;;;;;;;5093549;28;20542;-82
2023/06/16 00:53:11;;;;;;;9.40;4.85;;;;;;;;;;5093586;28;20121;-82
2023/06/16 00:55:38;;;;;;;6.55;4.97;;;;;;;;;;5092255;28;20105;-83
2023/06/16 00:58:05;;;;;;;7.88;4.75;;;;;;;;;;5092389;28;20048;-83
2023/06/16 01:00:36;;;;;;;7.65;4.68;;;;;;;;;;5093539;28;20050;-83
2023/06/16 01:03:04;;;;;;;6.28;5.18;;;;;;;;;;5092425;28;20056;-83
2023/06/16 01:05:32;;;;;;;7.97;5.43;;;;;;;;;;5092293;28;20051;-82
2023/06/16 01:08:09;;;;;;;7.80;5.15;;;;;;;;;;5093259;28;20113;-82
2023/06/16 01:10:36;;;;;;;6.60;4.75;;;;;;;;;;5093346;28;20044;-82
2023/06/16 01:13:13;;;;;;;9.23;5.43;;;;;;;;;;5091697;28;20075;-82
2023/06/16 01:15:42;;;;;;;5.50;5.00;;;;;;;;;;5091756;28;20048;-82
2023/06/16 01:18:09;;;;;;;7.55;5.15;;;;;;;;;;5092982;28;20044;-82
2023/06/16 01:20:48;;;;;;;6.28;5.47;;;;;;;;;;5093171;28;20048;-83
2023/06/16 01:23:18;;;;;;;5.72;4.85;;;;;;;;;;5092636;28;20610;-82
2023/06/16 01:25:47;;;;;;;13.82;5.22;;;;;;;;;;5091613;28;20052;-82
2023/06/16 01:28:18;;;;;;;5.63;5.13;;;;;;;;;;5092551;28;20051;-83
2023/06/16 01:30:50;;;;;;;5.63;5.03;;;;;;;;;;5106390;28;20048;-83
2023/06/16 01:33:19;;;;;;;5.47;4.90;;;;;;;;;;5091353;28;20579;-83
2023/06/16 01:35:47;;;;;;;5.40;4.90;;;;;;;;;;5092785;28;20094;-82
2023/06/16 01:38:15;;;;;;;7.55;5.57;;;;;;;;;;5093033;28;20083;-82
2023/06/16 01:40:42;;;;;;;6.05;5.18;;;;;;;;;;5091546;28;20127;-82
2023/06/16 01:43:10;;;;;;;6.38;4.78;;;;;;;;;;5091373;28;20048;-82
2023/06/16 01:45:38;;;;;;;5.97;4.95;;;;;;;;;;5091585;28;20105;-82
2023/06/16 01:48:06;;;;;;;6.40;5.00;;;;;;;;;;5092867;28;20048;-83
2023/06/16 01:50:33;;;;;;;7.90;4.70;;;;;;;;;;5091448;28;20054;-82
2023/06/16 01:53:01;;;;;;;10.65;5.30;;;;;;;;;;5092449;28;20123;-82
2023/06/16 01:55:28;;;;;;;8.18;5.30;;;;;;;;;;5091508;28;20060;-82
2023/06/16 01:57:56;;;;;;;6.25;5.47;;;;;;;;;;5092698;28;20070;-83
2023/06/16 02:00:27;;;;;;;5.78;5.28;;;;;;;;;;5091541;28;20080;-83
2023/06/16 02:02:58;;;;;;;5.32;4.88;;;;;;;;;;5092583;28;20480;-83
2023/06/16 02:05:26;;;;;;;6.22;5.43;;;;;;;;;;5092899;28;20048;-82
2023/06/16 02:07:55;;;;;;;5.97;4.75;;;;;;;;;;5091305;28;20063;-83
2023/06/16 02:10:23;;;;;;;7.97;5.47;;;;;;;;;;5091470;28;20131;-83
2023/06/16 02:12:50;;;;;;;7.20;5.38;;;;;;;;;;5092357;28;20070;-82
2023/06/16 02:15:18;;;;;;;6.20;5.38;;;;;;;;;;5091232;28;20087;-82
2023/06/16 02:17:47;;;;;;;6.60;5.38;;;;;;;;;;5091023;28;20097;-82
2023/06/16 02:20:14;;;;;;;6.55;5.68;;;;;;;;;;5092564;28;20496;-82
2023/06/16 02:22:42;;;;;;;9.35;6.15;;;;;;;;;;5092332;28;20455;-82
2023/06/16 02:25:09;;;;;;;8.35;5.53;;;;;;;;;;5090454;28;20561;-83
2023/06/16 02:27:37;;;;;;;8.45;5.95;;;;;;;;;;5092560;28;20051;-83
2023/06/16 02:30:04;;;;;;;6.70;5.72;;;;;;;;;;5092296;28;20106;-83
2023/06/16 02:32:31;;;;;;;10.00;5.78;;;;;;;;;;5090897;28;20056;-83
2023/06/16 02:34:59;;;;;;;6.38;5.78;;;;;;;;;;5092093;28;20113;-83
2023/06/16 02:37:27;;;;;;;11.90;6.15;;;;;;;;;;5092519;28;20078;-83
2023/06/16 02:39:54;;;;;;;9.43;6.10;;;;;;;;;;5092281;28;20044;-83
2023/06/16 02:42:21;;;;;;;6.93;6.20;;;;;;;;;;5091123;28;20492;-82
2023/06/16 02:44:48;;;;;;;8.93;6.60;;;;;;;;;;5096167;28;20093;-84
2023/06/16 02:47:16;;;;;;;7.78;7.07;;;;;;;;;;5107741;28;20105;-83
2023/06/16 02:49:43;;;;;;;8.68;6.13;;;;;;;;;;5095253;28;20141;-85
2023/06/16 02:52:11;;;;;;;6.78;6.07;;;;;;;;;;5096189;28;20079;-83
2023/06/16 02:54:41;;;;;;;7.82;6.45;;;;;;;;;;5094966;28;20055;-83
2023/06/16 02:57:08;;;;;;;7.45;6.75;;;;;;;;;;5095189;28;20091;-84
2023/06/16 02:59:36;;;;;;;9.02;7.13;;;;;;;;;;5095089;28;20051;-84
2023/06/16 03:02:03;;;;;;;9.98;6.95;;;;;;;;;;5096018;28;20101;-84
2023/06/16 03:04:30;;;;;;;11.68;7.43;;;;;;;;;;5094058;28;20052;-84
2023/06/16 03:06:58;;;;;;;10.60;7.70;;;;;;;;;;5095030;28;20455;-84
2023/06/16 03:09:26;;;;;;;8.93;7.55;;;;;;;;;;5095113;28;20055;-85
2023/06/16 03:11:54;;;;;;;8.23;7.35;;;;;;;;;;5094510;28;20422;-84
2023/06/16 03:14:22;;;;;;;8.10;7.28;;;;;;;;;;5094151;28;20048;-84
2023/06/16 03:16:50;;;;;;;9.68;7.80;;;;;;;;;;5094554;28;20105;-83
2023/06/16 03:19:21;;;;;;;10.05;8.55;;;;;;;;;;5094829;28;20048;-84
2023/06/16 03:21:50;;;;;;;10.95;7.53;;;;;;;;;;5094512;28;20105;-84
2023/06/16 03:24:17;;;;;;;8.70;7.57;;;;;;;;;;5094516;28;20051;-84
2023/06/16 03:26:45;;;;;;;10.93;8.40;;;;;;;;;;5094596;28;20060;-84
2023/06/16 03:29:12;;;;;;;9.05;8.15;;;;;;;;;;5095513;28;20044;-84
2023/06/16 03:31:40;;;;;;;9.50;7.97;;;;;;;;;;5094232;28;20059;-83
2023/06/16 03:34:07;;;;;;;9.77;7.57;;;;;;;;;;5093873;28;20048;-83
2023/06/16 03:36:50;;;;;;;10.23;7.88;;;;;;;;;;5094276;28;20511;-84
2023/06/16 03:39:18;;;;;;;10.82;8.52;;;;;;;;;;5094231;28;20059;-83
2023/06/16 03:41:45;;;;;;;10.18;8.55;;;;;;;;;;5093736;28;20044;-83
2023/06/16 03:44:12;;;;;;;10.00;8.40;;;;;;;;;;5093072;28;20097;-83
2023/06/16 03:46:40;;;;;;;15.20;9.85;;;;;;;;;;5093609;28;20466;-83
2023/06/16 03:49:07;;;;;;;13.70;9.00;;;;;;;;;;5095458;28;20075;-84
2023/06/16 03:51:39;;;;;;;12.25;9.13;;;;;;;;;;5095247;28;20077;-83
2023/06/16 03:54:07;;;;;;;9.57;8.30;;;;;;;;;;5093837;28;20060;-83
2023/06/16 03:56:34;;;;;;;11.77;9.13;;;;;;;;;;5093714;28;20075;-84
2023/06/16 03:59:01;;;;;;;12.05;8.85;;;;;;;;;;5094143;28;20114;-83
2023/06/16 04:01:30;;;;;;;11.75;8.90;;;;;;;;;;5102953;28;20453;-83
2023/06/16 04:03:57;;;;;;;12.27;9.25;;;;;;;;;;5096083;28;20093;-83
2023/06/16 04:06:25;;;;;;;10.15;8.95;;;;;;;;;;5094603;28;20159;-83
2023/06/16 04:08:52;;;;;;;11.18;8.73;;;;;;;;;;5093511;28;20054;-83
2023/06/16 04:11:19;;;;;;;9.23;7.97;;;;;;;;;;5094458;28;20109;-83
2023/06/16 04:13:47;;;;;;;9.20;8.25;;;;;;;;;;5092722;28;20079;-82
2023/06/16 04:16:17;;;;;;;12.35;8.10;;;;;;;;;;5094496;28;20048;-82
2023/06/16 04:18:48;;;;;;;11.75;8.95;;;;;;;;;;5093293;28;20109;-82
2023/06/16 04:21:15;;;;;;;10.98;8.75;;;;;;;;;;5094521;28;20105;-83
2023/06/16 04:23:42;;;;;;;11.07;8.52;;;;;;;;;;5093275;28;20055;-83
2023/06/16 04:26:10;;;;;;;11.07;8.23;;;;;;;;;;5094325;28;20117;-82
2023/06/16 04:28:44;;;;;;;11.18;9.02;;;;;;;;;;5093129;28;20051;-83
2023/06/16 04:31:12;;;;;;;9.63;8.60;;;;;;;;;;5092836;28;20051;-82
2023/06/16 04:33:42;;;;;;;12.00;8.40;;;;;;;;;;5093107;28;20052;-82
2023/06/16 04:36:09;;;;;;;13.15;8.75;;;;;;;;;;5094261;28;20044;-83
2023/06/16 04:38:37;;;;;;;10.23;8.27;;;;;;;;;;5092925;28;20086;-83
2023/06/16 04:41:05;;;;;;;9.57;8.57;;;;;;;;;;5093947;28;20101;-82
2023/06/16 04:43:32;;;;;;;10.30;8.57;;;;;;;;;;5093861;28;20044;-84
2023/06/16 04:45:59;;;;;;;13.55;8.63;;;;;;;;;;5093806;28;20052;-82
2023/06/16 04:48:26;;;;;;;9.05;7.78;;;;;;;;;;5093983;28;20484;-82
2023/06/16 04:50:54;;;;;;;14.20;8.30;;;;;;;;;;5093737;28;20072;-82
2023/06/16 04:53:21;;;;;;;10.23;8.85;;;;;;;;;;5092337;28;20504;-83
2023/06/16 04:55:49;;;;;;;8.73;7.75;;;;;;;;;;5092383;28;20075;-83
2023/06/16 04:58:16;;;;;;;7.75;7.05;;;;;;;;;;5092149;28;20454;-82
2023/06/16 05:00:43;;;;;;;14.07;8.25;;;;;;;;;;5093368;28;20440;-82
2023/06/16 05:03:11;;;;;;;10.50;7.88;;;;;;;;;;5093608;28;20054;-83
2023/06/16 05:05:38;;;;;;;7.85;7.05;;;;;;;;;;5093632;28;20119;-82
2023/06/16 05:08:06;;;;;;;7.32;6.43;;;;;;;;;;5091855;28;20313;-83
2023/06/16 05:10:33;;;;;;;9.38;7.10;;;;;;;;;;5093459;28;20045;-83
2023/06/16 05:13:00;;;;;;;8.43;6.40;;;;;;;;;;5093290;28;20052;-82
2023/06/16 05:15:28;;;;;;;7.85;6.50;;;;;;;;;;5093023;28;20103;-82
2023/06/16 05:17:56;;;;;;;11.02;7.32;;;;;;;;;;5094566;28;20051;-82
2023/06/16 05:20:23;;;;;;;9.85;6.70;;;;;;;;;;5093391;28;20075;-82
2023/06/16 05:22:50;;;;;;;15.00;6.85;;;;;;;;;;5091942;28;20083;-82
2023/06/16 05:25:17;;;;;;;13.88;6.78;;;;;;;;;;5091750;28;20093;-81
2023/06/16 05:27:46;;;;;;;8.38;6.15;;;;;;;;;;5092963;28;20047;-82
2023/06/16 05:30:14;;;;;;;10.88;6.97;;;;;;;;;;5092725;28;20094;-82
2023/06/16 05:32:41;;;;;;;13.95;8.02;;;;;;;;;;5092895;28;20083;-82
2023/06/16 05:35:08;;;;;;;13.82;7.78;;;;;;;;;;5092046;28;20101;-82
2023/06/16 05:37:35;;;;;;;9.20;6.47;;;;;;;;;;5092073;28;20076;-82
2023/06/16 05:40:03;;;;;;;10.65;6.55;;;;;;;;;;5091956;28;20044;-83
2023/06/16 05:42:30;;;;;;;10.52;6.72;;;;;;;;;;5103662;28;20047;-82
2023/06/16 05:44:57;;;;;;;11.02;7.13;;;;;;;;;;5112061;28;20047;-82
2023/06/16 05:47:25;;;;;;;13.18;6.97;;;;;;;;;;5113117;28;20480;-82
2023/06/16 05:49:52;;;;;;;14.32;7.25;;;;;;;;;;5112069;28;20044;-83
2023/06/16 05:52:19;;;;;;;10.77;6.43;;;;;;;;;;5113054;27;20047;-82
2023/06/16 05:54:47;;;;;;;9.15;6.47;;;;;;;;;;5111946;28;20047;-83
2023/06/16 05:57:14;;;;;;;6.80;5.43;;;;;;;;;;5111873;28;20083;-83
2023/06/16 05:59:41;;;;;;;11.15;5.35;;;;;;;;;;5113353;28;20047;-83
2023/06/16 06:02:08;;;;;;;12.77;6.32;;;;;;;;;;5113086;28;20549;-82
2023/06/16 06:04:39;;;;;;;10.02;5.88;;;;;;;;;;5112048;28;20044;-82
2023/06/16 06:07:06;;;;;;;11.25;6.53;;;;;;;;;;5113083;28;20050;-82
2023/06/16 06:09:34;;;;;;;8.85;5.95;;;;;;;;;;5112848;28;20100;-83
2023/06/16 06:12:01;;;;;;;8.25;6.05;;;;;;;;;;5111842;28;20048;-83
2023/06/16 06:14:29;;;;;;;8.05;5.53;;;;;;;;;;5112888;28;20056;-83
2023/06/16 06:16:56;;;;;;;11.07;5.93;;;;;;;;;;5112005;28;20136;-83
2023/06/16 06:19:24;;;;;;;19.33;5.57;;;;;;;;;;5113261;28;20547;-83
2023/06/16 06:21:51;;;;;;;7.57;5.80;;;;;;;;;;5117494;28;20377;-83
2023/06/16 06:24:20;;;;;;;7.90;5.60;;;;;;;;;;5116980;28;20504;-84
2023/06/16 06:26:47;;;;;;;11.85;5.68;;;;;;;;;;5114858;28;20051;-83
2023/06/16 06:29:15;;;;;;;6.93;5.38;;;;;;;;;;5105381;28;20427;-83
2023/06/16 06:31:43;;;;;;;8.30;5.10;;;;;;;;;;5116746;28;20077;-84
2023/06/16 06:34:10;;;;;;;11.27;5.85;;;;;;;;;;5116916;28;20052;-84
2023/06/16 06:36:39;;;;;;;8.05;5.38;;;;;;;;;;5102638;28;20048;-83
2023/06/16 06:39:08;;;;;;;8.25;5.60;;;;;;;;;;5096748;28;20048;-84
2023/06/16 06:41:36;;;;;;;7.22;5.47;;;;;;;;;;5096546;28;20056;-88
2023/06/16 06:44:03;;;;;;;6.95;5.70;;;;;;;;;;5096170;28;20044;-85
2023/06/16 06:46:30;;;;;;;6.20;5.60;;;;;;;;;;5106074;28;20075;-84
2023/06/16 06:48:57;;;;;;;7.10;5.28;;;;;;;;;;5116125;28;20055;-84
2023/06/16 06:51:25;;;;;;;10.68;5.88;;;;;;;;;;5106953;28;20052;-84
2023/06/16 06:53:52;;;;;;;8.23;5.72;;;;;;;;;;5096272;28;20070;-85
2023/06/16 06:56:22;;;;;;;7.28;5.50;;;;;;;;;;5103703;28;20507;-84
2023/06/16 06:58:49;;;;;;;9.25;4.93;;;;;;;;;;5107254;28;20058;-83
2023/06/16 07:01:17;;;;;;;8.13;4.90;;;;;;;;;;5107699;28;20075;-88
2023/06/16 07:03:44;;;;;;;3.72;3.42;;;;;;;;;;5094936;28;20126;-84
2023/06/16 07:06:12;;;;;;;6.65;3.95;;;;;;;;;;5096328;28;20098;-85
2023/06/16 07:08:39;;;;;;;4.85;3.50;;;;;;;;;;5095459;28;20052;-86
2023/06/16 07:11:06;;;;;;;3.70;3.40;;;;;;;;;;5102295;28;20055;-83
2023/06/16 07:13:34;;;;;;;4.65;3.30;;;;;;;;;;5115876;28;20055;-85
2023/06/16 07:16:01;;;;;;;3.72;3.42;;;;;;;;;;5111295;28;20078;-91
2023/06/16 07:18:28;;;;;;;3.47;3.22;;;;;;;;;;5115865;28;20048;-85
2023/06/16 07:20:56;;;;;;;3.60;3.00;;;;;;;;;;5115572;28;20082;-83
2023/06/16 07:23:28;;;;;;;3.33;3.10;;;;;;;;;;5110986;28;20067;-83
2023/06/16 07:25:55;;;;;;;3.35;3.05;;;;;;;;;;5098159;28;20411;-82
2023/06/16 07:28:23;;;;;;;9.18;3.50;;;;;;;;;;5114807;28;20522;-85
2023/06/16 07:30:52;;;;;;;6.07;3.20;;;;;;;;;;5114561;28;20047;-83
2023/06/16 07:33:19;;;;;;;6.20;3.35;;;;;;;;;;5114407;28;20071;-83
2023/06/16 07:35:47;;;;;;;5.13;3.25;;;;;;;;;;5114062;28;20047;-83
2023/06/16 07:38:15;;;;;;;9.02;3.20;;;;;;;;;;5095313;28;20044;-83
2023/06/16 07:40:42;;;;;;;5.03;3.30;;;;;;;;;;5096550;28;20419;-87
2023/06/16 07:43:09;;;;;;;6.13;3.15;;;;;;;;;;5114794;28;20577;-82
2023/06/16 07:45:36;;;;;;;6.45;3.25;;;;;;;;;;5115898;28;20526;-85
2023/06/16 07:48:07;;;;;;;6.07;3.08;;;;;;;;;;5122437;27;20036;-85
2023/06/16 07:50:35;;;;;;;3.05;2.80;;;;;;;;;;5125243;28;20059;-84
2023/06/16 07:53:03;;;;;;;3.00;2.80;;;;;;;;;;5114654;28;20055;-85
2023/06/16 07:55:30;;;;;;;5.70;3.08;;;;;;;;;;5114795;28;20085;-83
2023/06/16 07:57:57;;;;;;;5.07;2.80;;;;;;;;;;5114683;28;20052;-84
2023/06/16 08:00:25;;;;;;;3.50;3.10;;;;;;;;;;5103864;28;20058;-85
2023/06/16 08:02:52;;;;;;;3.42;2.65;;;;;;;;;;5094344;28;20091;-84
2023/06/16 08:05:20;;;;;;;4.40;2.70;;;;;;;;;;5103483;28;20485;-86
2023/06/16 08:07:50;;;;;;;3.53;2.45;;;;;;;;;;5110897;28;20476;-85
2023/06/16 08:10:20;;;;;;;4.00;2.60;;;;;;;;;;5105973;28;20071;-83
2023/06/16 08:12:51;;;;;;;5.83;2.37;;;;;;;;;;5108223;28;20092;-83
2023/06/16 08:15:20;;;;;;;4.75;2.47;;;;;;;;;;5102520;28;20298;-84
2023/06/16 08:17:47;;;;;;;2.83;2.63;;;;;;;;;;5093806;28;20105;-83
2023/06/16 08:20:14;;;;;;;4.78;2.97;;;;;;;;;;5093911;28;20044;-91
2023/06/16 08:22:42;;;;;;;5.72;2.85;;;;;;;;;;5094109;28;20044;-85
2023/06/16 08:25:09;;;;;;;6.13;3.35;;;;;;;;;;5108256;28;20061;-83
2023/06/16 08:27:36;;;;;;;8.00;3.05;;;;;;;;;;5109646;28;20096;-89
2023/06/16 08:30:04;;;;;;;7.15;3.05;;;;;;;;;;5112659;28;20055;-86
2023/06/16 08:32:32;;;;;;;3.30;2.78;;;;;;;;;;5107263;28;20113;-85
2023/06/16 08:34:59;;;;;;;5.90;2.85;;;;;;;;;;5112701;28;20385;-87
2023/06/16 08:37:27;;;;;;;3.67;2.65;;;;;;;;;;5112719;28;20097;-89
2023/06/16 08:39:57;;;;;;;5.82;3.20;;;;;;;;;;5112437;28;20043;-84
2023/06/16 08:42:25;;;;;;;3.15;2.85;;;;;;;;;;5111897;28;20113;-85
2023/06/16 08:44:54;;;;;;;8.05;3.47;;;;;;;;;;5112296;28;20081;-83
2023/06/16 08:47:22;;;;;;;7.93;3.35;;;;;;;;;;5112180;28;20489;-82
2023/06/16 08:49:52;;;;;;;6.45;2.92;;;;;;;;;;5115108;28;20385;-85
2023/06/16 08:52:21;;;;;;;3.50;2.63;;;;;;;;;;5102174;28;20048;-83
2023/06/16 08:55:10;;;;;;;5.00;2.55;;;;;;;;;;5093626;28;20044;-86
2023/06/16 08:57:41;;;;;;;4.47;3.22;;;;;;;;;;5106053;28;20044;-87
2023/06/16 09:00:10;;;;;;;4.43;3.15;;;;;;;;;;5105757;28;20052;-86
2023/06/16 09:02:37;;;;;;;4.38;3.00;;;;;;;;;;5106057;28;20514;-83
2023/06/16 09:05:09;;;;;;;6.80;3.53;;;;;;;;;;5127144;27;20480;-90
2023/06/16 09:07:39;;;;;;;3.78;3.13;;;;;;;;;;5120288;27;20051;-89
2023/06/16 09:10:07;;;;;;;7.20;3.25;;;;;;;;;;5114089;28;20070;-85
2023/06/16 09:12:35;;;;;;;4.60;3.30;;;;;;;;;;5113951;28;20051;-87
2023/06/16 09:15:06;;;;;;;4.93;3.22;;;;;;;;;;5112717;28;20051;-84
2023/06/16 09:17:33;;;;;;;3.65;3.30;;;;;;;;;;5102402;28;20044;-83
2023/06/16 09:20:06;;;;;;;10.45;3.97;;;;;;;;;;5093479;28;20054;-86
2023/06/16 09:22:33;;;;;;;5.53;3.10;;;;;;;;;;5092443;28;20393;-84
2023/06/16 09:25:01;;;;;;;4.45;2.95;;;;;;;;;;5110059;28;20427;-86
2023/06/16 09:27:43;;;;;;;8.40;3.50;;;;;;;;;;5101230;28;20456;-85
2023/06/16 09:30:14;;;;;;;7.72;2.97;;;;;;;;;;5100299;28;20056;-87
2023/06/16 09:32:42;;;;;;;4.65;3.00;;;;;;;;;;5100758;28;20529;-84
2023/06/16 09:35:19;;;;;;;4.40;2.88;;;;;;;;;;5091990;28;20407;-84
2023/06/16 09:37:51;;;;;;;3.78;2.60;;;;;;;;;;5092189;28;20055;-84
2023/06/16 09:40:19;;;;;;;5.35;3.60;;;;;;;;;;5091504;28;20044;-83
2023/06/16 09:42:47;;;;;;;7.43;3.13;;;;;;;;;;5092990;28;20052;-83
2023/06/16 09:45:16;;;;;;;3.75;3.13;;;;;;;;;;5093288;28;20432;-84
2023/06/16 09:47:47;;;;;;;5.00;2.85;;;;;;;;;;5092935;28;20086;-85
2023/06/16 09:50:18;;;;;;;3.30;3.00;;;;;;;;;;5092018;28;20082;-85
2023/06/16 09:52:47;;;;;;;3.28;3.08;;;;;;;;;;5091807;28;20097;-86
2023/06/16 09:55:15;;;;;;;5.97;3.25;;;;;;;;;;5091853;28;20044;-86
2023/06/16 09:57:43;;;;;;;4.03;2.95;;;;;;;;;;5103237;28;20052;-83
2023/06/16 10:00:15;;;;;;;3.22;2.88;;;;;;;;;;5105379;28;20090;-83
2023/06/16 10:02:51;;;;;;;5.10;3.00;;;;;;;;;;5091932;28;20083;-89
2023/06/16 10:05:19;;;;;;;3.42;3.13;;;;;;;;;;5092687;28;20093;-88
2023/06/16 10:07:48;;;;;;;4.22;3.08;;;;;;;;;;5101966;28;20511;-84
2023/06/16 10:10:17;;;;;;;7.93;3.25;;;;;;;;;;5112089;28;20052;-85
2023/06/16 10:12:48;;;;;;;4.95;3.30;;;;;;;;;;5111957;28;20052;-89
2023/06/16 10:15:26;;;;;;;4.75;3.05;;;;;;;;;;5113991;28;20054;-88
2023/06/16 10:18:03;;;;;;;3.75;2.53;;;;;;;;;;5102054;28;20125;-90
2023/06/16 10:20:37;;;;;;;3.38;2.90;;;;;;;;;;5099266;28;20126;-85
2023/06/16 10:23:06;;;;;;;3.22;2.92;;;;;;;;;;5108027;28;20066;-87
2023/06/16 10:25:34;;;;;;;8.70;2.45;;;;;;;;;;5112058;28;20047;-85
2023/06/16 10:28:07;;;;;;;3.20;2.92;;;;;;;;;;5113046;28;20506;-89
2023/06/16 10:30:35;;;;;;;6.65;2.88;;;;;;;;;;5113334;28;20083;-85
2023/06/16 10:33:16;;;;;;;6.80;2.85;;;;;;;;;;5100955;28;20084;-86
2023/06/16 10:36:10;;;;;;;7.53;2.75;;;;;;;;;;5091789;28;20107;-86
2023/06/16 10:38:59;;;;;;;5.53;3.08;;;;;;;;;;5092676;28;20144;-87
2023/06/16 10:41:29;;;;;;;7.90;2.75;;;;;;;;;;5092076;28;20461;-84
2023/06/16 10:44:07;;;;;;;4.70;2.85;;;;;;;;;;5110341;28;20051;-88
2023/06/16 10:46:34;;;;;;;3.80;2.45;;;;;;;;;;5113292;28;20058;-86
2023/06/16 10:49:05;;;;;;;14.23;3.30;;;;;;;;;;5093277;28;20046;-87
2023/06/16 10:51:41;;;;;;;4.68;2.85;;;;;;;;;;5091756;28;20516;-88
2023/06/16 10:54:09;;;;;;;3.47;2.80;;;;;;;;;;5111018;28;20504;-93
2023/06/16 10:56:55;;;;;;;2.83;2.35;;;;;;;;;;5112084;28;20051;-88
2023/06/16 10:59:56;;;;;;;6.03;2.60;;;;;;;;;;5091721;28;20044;-85
2023/06/16 11:02:26;;;;;;;3.97;2.58;;;;;;;;;;5095064;28;20058;-84
2023/06/16 11:05:12;;;;;;;7.78;2.47;;;;;;;;;;5113340;28;20040;-84
2023/06/16 11:08:05;;;;;;;3.83;2.50;;;;;;;;;;5111023;28;20051;-85
2023/06/16 11:10:52;;;;;;;2.33;2.08;;;;;;;;;;5096243;28;20066;-86
2023/06/16 11:13:25;;;;;;;3.08;2.40;;;;;;;;;;5096467;28;20040;-87
2023/06/16 11:15:54;;;;;;;3.78;2.38;;;;;;;;;;5095572;28;20561;-85
2023/06/16 11:18:26;;;;;;;2.38;2.17;;;;;;;;;;5107404;28;20043;-85
2023/06/16 11:20:57;;;;;;;2.88;2.20;;;;;;;;;;5115671;28;20100;-87
2023/06/16 11:23:25;;;;;;;5.82;2.33;;;;;;;;;;5108407;28;20084;-85
2023/06/16 11:25:52;;;;;;;2.08;1.90;;;;;;;;;;5115366;28;20488;-86
2023/06/16 11:28:20;;;;;;;2.13;1.70;;;;;;;;;;5116365;28;20055;-84
2023/06/16 11:30:48;;;;;;;2.13;2.00;;;;;;;;;;5115594;27;20082;-84
2023/06/16 11:33:16;;;;;;;3.22;2.10;;;;;;;;;;5116023;28;20511;-85
2023/06/16 11:35:43;;;;;;;2.55;1.60;;;;;;;;;;5117507;28;20113;-86
2023/06/16 11:38:11;;;;;;;1.40;1.30;;;;;;;;;;5123790;28;20058;-84
2023/06/16 11:40:38;;;;;;;1.73;1.55;;;;;;;;;;5094899;28;20465;-84
2023/06/16 11:43:06;;;;;;;2.30;1.65;;;;;;;;;;5101818;28;20105;-85
2023/06/16 11:45:36;;;;;;;2.80;1.45;;;;;;;;;;5114602;28;20096;-85
2023/06/16 11:48:04;;;;;;;1.95;1.52;;;;;;;;;;5107858;28;20048;-85
2023/06/16 11:50:32;;;;;;;1.40;1.30;;;;;;;;;;5094480;28;20067;-87
2023/06/16 11:53:00;;;;;;;2.58;1.20;;;;;;;;;;5094498;28;20118;-88
2023/06/16 11:55:27;;;;;;;3.20;1.20;;;;;;;;;;5095860;28;20075;-86
2023/06/16 11:57:57;;;;;;;1.45;1.38;;;;;;;;;;5095319;28;20496;-86
2023/06/16 12:00:26;;;;;;;2.05;1.15;;;;;;;;;;5103864;28;20139;-87
2023/06/16 12:02:55;;;;;;;1.58;1.10;;;;;;;;;;5114744;28;20043;-87
2023/06/16 12:05:24;;;;;;;2.00;1.10;;;;;;;;;;5114483;28;20048;-91
2023/06/16 12:07:52;;;;;;;2.47;1.48;;;;;;;;;;5110514;28;20074;-83
2023/06/16 12:10:19;;;;;;;3.47;1.40;;;;;;;;;;5094484;28;20500;-87
2023/06/16 12:12:47;;;;;;;1.13;1.13;;;;;;;;;;5094166;28;20048;-84
2023/06/16 12:15:18;;;;;;;2.08;1.48;;;;;;;;;;5094911;28;20055;-86
2023/06/16 12:17:47;;;;;;;1.50;1.40;;;;;;;;;;5097754;28;20393;-84
2023/06/16 12:20:16;;;;;;;1.33;1.30;;;;;;;;;;5114230;28;20380;-84
2023/06/16 12:22:46;;;;;;;1.23;1.23;;;;;;;;;;5111124;28;20043;-87
2023/06/16 12:25:15;;;;;;;2.40;1.60;;;;;;;;;;5113513;28;20126;-86
2023/06/16 12:27:44;;;;;;;1.40;1.30;;;;;;;;;;5113785;28;20201;-85
2023/06/16 12:30:12;;;;;;;2.00;1.50;;;;;;;;;;5115142;28;20048;-85
2023/06/16 12:32:41;;;;;;;1.70;1.60;;;;;;;;;;5112964;28;20140;-86
2023/06/16 12:35:09;;;;;;;1.60;1.48;;;;;;;;;;5094048;28;20090;-85
2023/06/16 12:37:39;;;;;;;5.45;1.70;;;;;;;;;;5094751;28;20052;-87
2023/06/16 12:40:10;;;;;;;4.97;1.58;;;;;;;;;;5115589;28;20052;-85
2023/06/16 12:42:38;;;;;;;1.67;1.58;;;;;;;;;;5114612;28;20492;-84
2023/06/16 12:45:06;;;;;;;1.67;1.58;;;;;;;;;;5095047;28;20056;-90
2023/06/16 12:47:34;;;;;;;1.95;1.80;;;;;;;;;;5093742;28;20100;-87
2023/06/16 12:50:03;;;;;;;3.47;1.65;;;;;;;;;;5114708;28;20488;-93
2023/06/16 12:52:31;;;;;;;4.78;1.63;;;;;;;;;;5115959;28;20048;-86
2023/06/16 12:54:59;;;;;;;1.70;1.60;;;;;;;;;;5113851;28;20052;-87
2023/06/16 12:57:27;;;;;;;4.03;1.65;;;;;;;;;;5093801;28;20101;-85
2023/06/16 12:59:55;;;;;;;3.05;1.60;;;;;;;;;;5108152;28;20040;-89
2023/06/16 13:02:22;;;;;;;1.98;1.70;;;;;;;;;;5094321;28;20047;-85
2023/06/16 13:04:50;;;;;;;2.17;1.80;;;;;;;;;;5094947;28;20101;-86
2023/06/16 13:07:17;;;;;;;1.83;1.73;;;;;;;;;;5094206;28;20051;-88
2023/06/16 13:09:44;;;;;;;1.83;1.73;;;;;;;;;;5095131;28;20054;-91
2023/06/16 13:12:14;;;;;;;3.40;2.00;;;;;;;;;;5093026;28;20055;-88
2023/06/16 13:14:41;;;;;;;2.65;1.70;;;;;;;;;;5109316;28;20052;-87
2023/06/16 13:17:09;;;;;;;6.50;2.10;;;;;;;;;;5113896;28;20129;-87
2023/06/16 13:19:36;;;;;;;2.30;1.70;;;;;;;;;;5113616;28;20039;-86
2023/06/16 13:22:04;;;;;;;2.38;1.88;;;;;;;;;;5113413;28;20124;-85
2023/06/16 13:24:31;;;;;;;7.57;1.80;;;;;;;;;;5112706;28;20082;-89
2023/06/16 13:26:58;;;;;;;2.10;1.85;;;;;;;;;;5113782;28;20047;-89
2023/06/16 13:29:26;;;;;;;3.20;1.95;;;;;;;;;;5114015;28;20051;-85
2023/06/16 13:31:54;;;;;;;3.42;1.55;;;;;;;;;;5092966;28;20052;-86
2023/06/16 13:34:21;;;;;;;2.10;1.90;;;;;;;;;;5105709;28;20043;-88
2023/06/16 13:36:49;;;;;;;3.58;2.00;;;;;;;;;;5114246;28;20540;-87
2023/06/16 13:39:16;;;;;;;6.10;1.73;;;;;;;;;;5106570;28;20059;-87
2023/06/16 13:41:43;;;;;;;2.10;1.70;;;;;;;;;;5106099;28;20044;-84
2023/06/16 13:44:12;;;;;;;1.95;1.85;;;;;;;;;;5094540;28;20113;-84
2023/06/16 13:46:39;;;;;;;1.80;1.70;;;;;;;;;;5099135;28;20446;-85
2023/06/16 13:49:07;;;;;;;5.65;1.90;;;;;;;;;;5092950;28;20055;-87
2023/06/16 13:51:41;;;;;;;2.47;1.55;;;;;;;;;;5092283;28;20056;-87
2023/06/16 13:54:08;;;;;;;2.35;1.90;;;;;;;;;;5092250;28;20538;-90
2023/06/16 13:56:36;;;;;;;2.33;1.77;;;;;;;;;;5093200;28;20052;-86
2023/06/16 13:59:03;;;;;;;6.65;1.75;;;;;;;;;;5107232;28;20074;-86
2023/06/16 14:01:30;;;;;;;1.90;1.80;;;;;;;;;;5113857;28;20074;-93
2023/06/16 14:03:58;;;;;;;1.90;1.75;;;;;;;;;;5113937;28;20047;-86
2023/06/16 14:06:25;;;;;;;2.47;1.92;;;;;;;;;;5112661;28;20075;-85
2023/06/16 14:08:55;;;;;;;2.25;1.52;;;;;;;;;;5114476;28;20541;-85
2023/06/16 14:11:23;;;;;;;2.90;1.77;;;;;;;;;;5130562;27;20047;-84
2023/06/16 14:13:51;;;;;;;3.50;1.98;;;;;;;;;;5101551;28;20052;-85
2023/06/16 14:16:18;;;;;;;3.72;1.67;;;;;;;;;;5092662;28;20048;-86
2023/06/16 14:18:46;;;;;;;1.90;1.80;;;;;;;;;;5092266;28;20040;-88
2023/06/16 14:21:13;;;;;;;1.80;1.70;;;;;;;;;;5091749;28;20101;-82
2023/06/16 14:23:40;;;;;;;1.75;1.65;;;;;;;;;;5092319;28;20068;-85
2023/06/16 14:26:07;;;;;;;1.80;1.70;;;;;;;;;;5092213;28;20056;-86
2023/06/16 14:28:34;;;;;;;2.10;1.90;;;;;;;;;;5110864;28;20105;-85
2023/06/16 14:31:02;;;;;;;2.15;1.38;;;;;;;;;;5112350;28;20078;-87
2023/06/16 14:33:29;;;;;;;1.70;1.60;;;;;;;;;;5112052;28;20142;-84
2023/06/16 14:35:56;;;;;;;3.13;1.90;;;;;;;;;;5094542;28;20091;-85
2023/06/16 14:38:23;;;;;;;3.38;2.33;;;;;;;;;;5107883;28;20146;-87
2023/06/16 14:40:51;;;;;;;1.77;1.70;;;;;;;;;;5114709;28;20116;-86
2023/06/16 14:43:18;;;;;;;3.08;1.80;;;;;;;;;;5100132;28;20044;-84
2023/06/16 14:45:45;;;;;;;2.05;1.92;;;;;;;;;;5096383;28;20044;-86
2023/06/16 14:48:13;;;;;;;3.13;1.90;;;;;;;;;;5096481;28;20075;-83
2023/06/16 14:50:40;;;;;;;4.13;2.13;;;;;;;;;;5096608;28;20511;-87